Time,TemperatureF,DewpointF,PressureIn,WindDirection,WindDirectionDegrees,WindSpeedMPH,WindSpeedGustMPH,Humidity,HourlyPrecipIn,Conditions,Clouds,dailyrainin,SolarRadiationWatts/m^2,SoftwareType,DateUTC
2013-07-26 00:02:00,55.0,44.0,-100.00,West,265,1.0,5.0,66,0.00,,,0.00,0.000000,,2013-07-26 06:02:00,
2013-07-26 00:12:00,55.0,44.0,-100.00,West,265,1.0,5.0,66,0.00,,,0.00,0.000000,,2013-07-26 06:12:00,
2013-07-26 00:43:00,54.0,44.0,-100.00,NW,314,2.0,6.0,69,0.00,,,0.00,0.000000,,2013-07-26 06:43:00,
2013-07-26 00:52:00,54.0,44.0,-100.00,NW,314,2.0,6.0,69,0.00,,,0.00,0.000000,,2013-07-26 06:52:00,
2013-07-26 01:02:00,54.0,44.0,-100.00,NW,314,2.0,6.0,69,0.00,,,0.00,0.000000,,2013-07-26 07:02:00,
2013-07-26 01:12:00,54.0,44.0,-100.00,NW,314,2.0,6.0,69,0.00,,,0.00,0.000000,,2013-07-26 07:12:00,
2013-07-26 01:43:00,52.0,43.0,-100.00,WSW,255,3.0,6.0,71,0.00,,,0.00,0.000000,,2013-07-26 07:43:00,
2013-07-26 01:53:00,52.0,43.0,-100.00,WSW,255,3.0,6.0,71,0.00,,,0.00,0.000000,,2013-07-26 07:53:00,
2013-07-26 02:02:00,52.0,43.0,-100.00,WSW,255,3.0,6.0,71,0.00,,,0.00,0.000000,,2013-07-26 08:02:00,
2013-07-26 02:12:00,52.0,43.0,-100.00,WSW,255,3.0,6.0,71,0.00,,,0.00,0.000000,,2013-07-26 08:12:00,
2013-07-26 02:44:00,52.0,43.0,-100.00,West,271,4.0,5.0,72,0.00,,,0.00,0.000000,,2013-07-26 08:44:00,
2013-07-26 02:52:00,52.0,43.0,-100.00,West,271,4.0,5.0,72,0.00,,,0.00,0.000000,,2013-07-26 08:52:00,
2013-07-26 03:02:00,52.0,43.0,-100.00,West,271,4.0,5.0,72,0.00,,,0.00,0.000000,,2013-07-26 09:02:00,
2013-07-26 03:12:00,52.0,43.0,-100.00,West,271,4.0,5.0,72,0.00,,,0.00,0.000000,,2013-07-26 09:12:00,
2013-07-26 03:43:00,51.0,44.0,-100.00,NW,312,0.0,5.0,77,0.00,,,0.00,0.000000,,2013-07-26 09:43:00,
2013-07-26 03:52:00,51.0,44.0,-100.00,NW,312,0.0,5.0,77,0.00,,,0.00,0.000000,,2013-07-26 09:52:00,
2013-07-26 04:02:00,51.0,44.0,-100.00,NW,312,0.0,5.0,77,0.00,,,0.00,0.000000,,2013-07-26 10:02:00,
2013-07-26 04:12:00,51.0,44.0,-100.00,NW,312,0.0,5.0,77,0.00,,,0.00,0.000000,,2013-07-26 10:12:00,
2013-07-26 04:43:00,49.0,43.0,-100.00,NW,322,2.0,5.0,81,0.00,,,0.00,0.000000,,2013-07-26 10:43:00,
2013-07-26 04:52:00,49.0,43.0,-100.00,NW,322,2.0,5.0,81,0.00,,,0.00,0.000000,,2013-07-26 10:52:00,
2013-07-26 05:02:00,49.0,43.0,-100.00,NW,322,2.0,5.0,81,0.00,,,0.00,0.000000,,2013-07-26 11:02:00,
2013-07-26 05:12:00,49.0,43.0,-100.00,NW,322,2.0,5.0,81,0.00,,,0.00,0.000000,,2013-07-26 11:12:00,
2013-07-26 05:43:00,49.0,41.0,-100.00,West,263,3.0,6.0,75,0.00,,,0.00,0.000000,,2013-07-26 11:43:00,
2013-07-26 05:52:00,49.0,41.0,-100.00,West,263,3.0,6.0,75,0.00,,,0.00,0.000000,,2013-07-26 11:52:00,
2013-07-26 06:02:00,49.0,41.0,-100.00,West,263,3.0,6.0,75,0.00,,,0.00,0.000000,,2013-07-26 12:02:00,
2013-07-26 06:12:00,49.0,41.0,-100.00,West,263,3.0,6.0,75,0.00,,,0.00,0.000000,,2013-07-26 12:12:00,
2013-07-26 06:43:00,48.0,40.0,-100.00,West,273,4.0,7.0,74,0.00,,,0.00,3.000000,,2013-07-26 12:43:00,
2013-07-26 06:53:00,48.0,40.0,-100.00,West,273,4.0,7.0,74,0.00,,,0.00,3.000000,,2013-07-26 12:53:00,
2013-07-26 07:02:00,48.0,40.0,-100.00,West,273,4.0,7.0,74,0.00,,,0.00,3.000000,,2013-07-26 13:02:00,
2013-07-26 07:12:00,48.0,40.0,-100.00,West,273,4.0,7.0,74,0.00,,,0.00,3.000000,,2013-07-26 13:12:00,
2013-07-26 07:43:00,49.0,43.0,-100.00,West,281,1.0,4.0,80,0.00,,,-99.99,32.000000,,2013-07-26 13:43:00,
2013-07-26 07:53:00,49.0,43.0,-100.00,West,281,1.0,4.0,80,0.00,,,-99.99,32.000000,,2013-07-26 13:53:00,
2013-07-26 08:02:00,49.0,43.0,-100.00,West,281,1.0,4.0,80,0.00,,,-99.99,32.000000,,2013-07-26 14:02:00,
2013-07-26 08:12:00,49.0,43.0,-100.00,West,281,1.0,4.0,80,0.00,,,-99.99,32.000000,,2013-07-26 14:12:00,
2013-07-26 08:53:00,61.0,45.0,-100.00,WNW,284,3.0,4.0,55,0.00,,,-99.99,292.000000,,2013-07-26 14:53:00,
2013-07-26 09:02:00,61.0,45.0,-100.00,WNW,284,3.0,4.0,55,0.00,,,-99.99,292.000000,,2013-07-26 15:02:00,
2013-07-26 09:12:00,61.0,45.0,-100.00,WNW,284,3.0,4.0,55,0.00,,,-99.99,292.000000,,2013-07-26 15:12:00,
2013-07-26 09:43:00,63.0,49.0,-100.00,East,101,6.0,9.0,61,0.00,,,0.00,510.000000,,2013-07-26 15:43:00,
2013-07-26 09:53:00,63.0,49.0,-100.00,East,101,6.0,9.0,61,0.00,,,0.00,510.000000,,2013-07-26 15:53:00,
2013-07-26 10:02:00,63.0,49.0,-100.00,East,101,6.0,9.0,61,0.00,,,0.00,510.000000,,2013-07-26 16:02:00,
2013-07-26 10:14:00,63.0,49.0,-100.00,East,101,6.0,9.0,61,0.00,,,0.00,510.000000,,2013-07-26 16:14:00,
2013-07-26 10:43:00,64.0,51.0,-100.00,ESE,104,8.0,14.0,63,0.00,,,0.00,724.000000,,2013-07-26 16:43:00,
2013-07-26 10:54:00,64.0,51.0,-100.00,ESE,104,8.0,14.0,63,0.00,,,0.00,724.000000,,2013-07-26 16:54:00,
2013-07-26 11:02:00,64.0,51.0,-100.00,ESE,104,8.0,14.0,63,0.00,,,0.00,724.000000,,2013-07-26 17:02:00,
2013-07-26 11:12:00,64.0,51.0,-100.00,ESE,104,8.0,14.0,63,0.00,,,0.00,724.000000,,2013-07-26 17:12:00,
2013-07-26 11:43:00,66.0,52.0,-100.00,East,101,10.0,20.0,61,0.00,,,0.00,891.000000,,2013-07-26 17:43:00,
2013-07-26 11:53:00,66.0,52.0,-100.00,East,101,10.0,20.0,61,0.00,,,0.00,891.000000,,2013-07-26 17:53:00,
2013-07-26 12:02:00,66.0,52.0,-100.00,East,101,10.0,20.0,61,0.00,,,0.00,891.000000,,2013-07-26 18:02:00,
2013-07-26 12:12:00,66.0,52.0,-100.00,East,101,10.0,20.0,61,0.00,,,0.00,891.000000,,2013-07-26 18:12:00,
2013-07-26 12:44:00,69.0,53.0,-100.00,ESE,115,11.0,17.0,57,0.00,,,0.00,1011.000000,,2013-07-26 18:44:00,
2013-07-26 12:52:00,69.0,53.0,-100.00,ESE,115,11.0,17.0,57,0.00,,,0.00,1011.000000,,2013-07-26 18:52:00,
2013-07-26 13:02:00,69.0,53.0,-100.00,ESE,115,11.0,17.0,57,0.00,,,0.00,1011.000000,,2013-07-26 19:02:00,
2013-07-26 13:12:00,69.0,53.0,-100.00,ESE,115,11.0,17.0,57,0.00,,,0.00,1011.000000,,2013-07-26 19:12:00,
2013-07-26 13:43:00,71.0,52.0,-100.00,ESE,122,10.0,16.0,51,0.00,,,0.00,1068.000000,,2013-07-26 19:43:00,
2013-07-26 13:52:00,71.0,52.0,-100.00,ESE,122,10.0,16.0,51,0.00,,,0.00,1068.000000,,2013-07-26 19:52:00,
2013-07-26 14:02:00,71.0,52.0,-100.00,ESE,122,10.0,16.0,51,0.00,,,0.00,1068.000000,,2013-07-26 20:02:00,
2013-07-26 14:12:00,71.0,52.0,-100.00,ESE,122,10.0,16.0,51,0.00,,,0.00,1068.000000,,2013-07-26 20:12:00,
2013-07-26 14:43:00,74.0,47.0,-100.00,ESE,116,12.0,17.0,38,0.00,,,0.00,1072.000000,,2013-07-26 20:43:00,
2013-07-26 14:53:00,74.0,47.0,-100.00,ESE,116,12.0,17.0,38,0.00,,,0.00,1072.000000,,2013-07-26 20:53:00,
2013-07-26 15:02:00,74.0,47.0,-100.00,ESE,116,12.0,17.0,38,0.00,,,0.00,1072.000000,,2013-07-26 21:02:00,
2013-07-26 15:12:00,74.0,47.0,-100.00,ESE,116,12.0,17.0,38,0.00,,,0.00,1072.000000,,2013-07-26 21:12:00,
2013-07-26 15:43:00,75.0,45.0,-100.00,ESE,116,11.0,21.0,35,0.00,,,0.00,1022.000000,,2013-07-26 21:43:00,
2013-07-26 15:53:00,75.0,45.0,-100.00,ESE,116,11.0,21.0,35,0.00,,,0.00,1022.000000,,2013-07-26 21:53:00,
2013-07-26 16:02:00,75.0,45.0,-100.00,ESE,116,11.0,21.0,35,0.00,,,0.00,1022.000000,,2013-07-26 22:02:00,
2013-07-26 16:12:00,75.0,45.0,-100.00,ESE,116,11.0,21.0,35,0.00,,,0.00,1022.000000,,2013-07-26 22:12:00,
2013-07-26 16:43:00,75.0,46.0,-100.00,ESE,121,9.0,20.0,36,0.00,,,0.00,894.000000,,2013-07-26 22:43:00,
2013-07-26 16:53:00,75.0,46.0,-100.00,ESE,121,9.0,20.0,36,0.00,,,0.00,894.000000,,2013-07-26 22:53:00,
2013-07-26 17:02:00,75.0,46.0,-100.00,ESE,121,9.0,20.0,36,0.00,,,0.00,894.000000,,2013-07-26 23:02:00,
2013-07-26 17:12:00,75.0,46.0,-100.00,ESE,121,9.0,20.0,36,0.00,,,0.00,894.000000,,2013-07-26 23:12:00,
2013-07-26 17:43:00,74.0,46.0,-100.00,ESE,107,9.0,16.0,37,0.00,,,0.00,732.000000,,2013-07-26 23:43:00,
2013-07-26 17:53:00,74.0,46.0,-100.00,ESE,107,9.0,16.0,37,0.00,,,0.00,732.000000,,2013-07-26 23:53:00,
2013-07-26 18:02:00,74.0,46.0,-100.00,ESE,107,9.0,16.0,37,0.00,,,0.00,732.000000,,2013-07-27 00:02:00,
2013-07-26 18:12:00,74.0,46.0,-100.00,ESE,107,9.0,16.0,37,0.00,,,0.00,732.000000,,2013-07-27 00:12:00,
2013-07-26 18:43:00,74.0,47.0,-100.00,East,98,9.0,14.0,38,0.00,,,0.00,534.000000,,2013-07-27 00:43:00,
2013-07-26 18:53:00,74.0,47.0,-100.00,East,98,9.0,14.0,38,0.00,,,0.00,534.000000,,2013-07-27 00:53:00,
2013-07-26 19:02:00,74.0,47.0,-100.00,East,98,9.0,14.0,38,0.00,,,0.00,534.000000,,2013-07-27 01:02:00,
2013-07-26 19:12:00,74.0,47.0,-100.00,East,98,9.0,14.0,38,0.00,,,0.00,534.000000,,2013-07-27 01:12:00,
2013-07-26 19:44:00,72.0,46.0,-100.00,ESE,108,7.0,12.0,39,0.00,,,0.00,331.000000,,2013-07-27 01:44:00,
2013-07-26 19:53:00,72.0,46.0,-100.00,ESE,108,7.0,12.0,39,0.00,,,0.00,331.000000,,2013-07-27 01:53:00,
2013-07-26 20:02:00,72.0,46.0,-100.00,ESE,108,7.0,12.0,39,0.00,,,0.00,331.000000,,2013-07-27 02:02:00,
2013-07-26 20:12:00,72.0,46.0,-100.00,ESE,108,7.0,12.0,39,0.00,,,0.00,331.000000,,2013-07-27 02:12:00,
2013-07-26 20:43:00,65.0,46.0,-100.00,NNW,334,1.0,12.0,50,0.00,,,-99.99,85.000000,,2013-07-27 02:43:00,
2013-07-26 20:53:00,65.0,46.0,-100.00,NNW,334,1.0,12.0,50,0.00,,,-99.99,85.000000,,2013-07-27 02:53:00,
2013-07-26 21:03:00,65.0,46.0,-100.00,NNW,334,1.0,12.0,50,0.00,,,-99.99,85.000000,,2013-07-27 03:03:00,
2013-07-26 21:12:00,65.0,46.0,-100.00,NNW,334,1.0,12.0,50,0.00,,,-99.99,85.000000,,2013-07-27 03:12:00,
2013-07-26 21:44:00,62.0,45.0,-100.00,West,268,4.0,10.0,53,0.00,,,0.00,8.000000,,2013-07-27 03:44:00,
2013-07-26 21:52:00,62.0,45.0,-100.00,West,268,4.0,10.0,53,0.00,,,0.00,8.000000,,2013-07-27 03:52:00,
2013-07-26 22:02:00,62.0,45.0,-100.00,West,268,4.0,10.0,53,0.00,,,0.00,8.000000,,2013-07-27 04:02:00,
2013-07-26 22:12:00,62.0,45.0,-100.00,West,268,4.0,10.0,53,0.00,,,0.00,8.000000,,2013-07-27 04:12:00,
2013-07-26 22:43:00,59.0,44.0,-100.00,WNW,285,4.0,8.0,58,0.00,,,0.00,0.000000,,2013-07-27 04:43:00,
2013-07-26 22:53:00,59.0,44.0,-100.00,WNW,285,4.0,8.0,58,0.00,,,0.00,0.000000,,2013-07-27 04:53:00,
2013-07-26 23:02:00,59.0,44.0,-100.00,WNW,285,4.0,8.0,58,0.00,,,0.00,0.000000,,2013-07-27 05:02:00,
2013-07-26 23:12:00,59.0,44.0,-100.00,WNW,285,4.0,8.0,58,0.00,,,0.00,0.000000,,2013-07-27 05:12:00,
2013-07-26 23:43:00,58.0,44.0,-100.00,West,266,4.0,6.0,59,0.00,,,0.00,0.000000,,2013-07-27 05:43:00,
2013-07-26 23:52:00,58.0,44.0,-100.00,West,266,4.0,6.0,59,0.00,,,0.00,0.000000,,2013-07-27 05:52:00,